Daikoku — JD3247 — position and weather

sailwx.info

Track history (hours):
 
Tides and Currents Weather Stations Pressure Air Temp Water Temp Dewpoint Dewpoint Depression Visibility Wind Speed Wind Dir Waves Ship Positions

Daikoku

Last reported at 2015-Mar-01 02:33 UTC. Time now 2015-Mar-01 03:02 UTC.
Position N 35°03' E 139°43'.

Length 95 m; draft 4.1 m.

Type: Cargo ship. MMSI: 431003009.

Date/timePositionNaut miles runAvg speedWind from/ knotsBaromVisibWave heightAir tempDewpointWater temp
2015-Mar-01 02:33N 35°03' E 139°43'23010.0
2015-Feb-28 03:32N 34°26' E 135°07'1313.2
2015-Feb-28 02:33N 34°37' E 135°16'3 2.8
2015-Feb-28 01:29N 34°40' E 135°14'0 0.2
2015-Feb-28 00:33N 34°40' E 135°14'1 0.7
2015-Feb-27 23:30N 34°39' E 135°15'2 2.4
2015-Feb-27 22:31N 34°37' E 135°15'0 0.0
2015-Feb-27 21:19N 34°37' E 135°15'0 0.0
2015-Feb-27 20:31N 34°37' E 135°15'0 0.0
2015-Feb-27 19:31N 34°37' E 135°15'0 0.0
2015-Feb-27 18:31N 34°37' E 135°15'0 0.1
2015-Feb-27 17:31N 34°37' E 135°15'0 0.0
2015-Feb-27 16:31N 34°37' E 135°15'0 0.1
2015-Feb-27 15:25N 34°37' E 135°15'0 0.0
2015-Feb-27 14:31N 34°37' E 135°15'0 0.1
2015-Feb-27 13:31N 34°37' E 135°15'0 0.0
2015-Feb-27 12:31N 34°37' E 135°15'0 0.0
2015-Feb-27 11:31N 34°37' E 135°15'0 0.0
2015-Feb-27 10:25N 34°37' E 135°15'0 0.1
2015-Feb-27 09:29N 34°37' E 135°15'910.0
2015-Feb-27 08:33N 34°29' E 135°10'1312.7
2015-Feb-27 07:33N 34°18' E 135°00'1111.4
2015-Feb-27 06:33N 34°07' E 134°60'23610.1
2015-Feb-26 07:11N 35°04' E 139°38'913.6
2015-Feb-26 06:33N 35°10' E 139°45'1313.0
2015-Feb-26 05:33N 35°23' E 139°42'4 3.4
2015-Feb-26 04:32N 35°26' E 139°41'0 0.0
2015-Feb-26 03:32N 35°26' E 139°41'0 0.0
2015-Feb-26 02:32N 35°26' E 139°41'0 0.0
2015-Feb-26 01:32N 35°26' E 139°41'0 0.0
2015-Feb-26 00:32N 35°26' E 139°41'0 0.0
2015-Feb-25 18:14N 35°26' E 139°41'0 0.0
2015-Feb-25 17:32N 35°26' E 139°41'0 0.0
2015-Feb-25 16:32N 35°26' E 139°41'0 0.0
2015-Feb-25 15:32N 35°26' E 139°41'0 0.0
2015-Feb-25 14:32N 35°26' E 139°41'0 0.0
2015-Feb-25 13:32N 35°26' E 139°41'0 0.0
2015-Feb-25 12:32N 35°26' E 139°41'0 0.0
2015-Feb-25 11:32N 35°26' E 139°41'0 0.0
2015-Feb-25 10:32N 35°26' E 139°41'0 0.0
2015-Feb-25 09:32N 35°26' E 139°41'0 0.0
2015-Feb-25 08:32N 35°26' E 139°41'0 0.5
2015-Feb-25 07:33N 35°27' E 139°41'2 2.3
2015-Feb-25 06:33N 35°24' E 139°41'3 3.3
2015-Feb-25 05:33N 35°27' E 139°41'4 3.6
2015-Feb-25 04:33N 35°29' E 139°45'0 0.0
2015-Feb-25 03:13N 35°29' E 139°45'5 7.9
2015-Feb-25 02:34N 35°24' E 139°46'1212.2
2015-Feb-25 01:33N 35°12' E 139°47'1312.6
2015-Feb-25 00:33N 35°01' E 139°39'234 5.7
2015-Feb-23 07:15N 34°19' E 134°59'912.6
2015-Feb-23 06:33N 34°26' E 135°06'1212.4
2015-Feb-23 05:33N 34°35' E 135°16'6 5.9
2015-Feb-23 04:31N 34°41' E 135°17'0 0.0
2015-Feb-23 03:31N 34°41' E 135°17'3 1.8
2015-Feb-23 02:04N 34°40' E 135°14'0 0.0
2015-Feb-23 01:31N 34°40' E 135°14'1 0.7
2015-Feb-23 00:27N 34°39' E 135°15'0 0.1
2015-Feb-22 23:32N 34°39' E 135°15'3 2.6
2015-Feb-22 22:32N 34°41' E 135°13'0 0.0
2015-Feb-22 21:32N 34°41' E 135°13'0 0.0
2015-Feb-22 20:32N 34°41' E 135°13'0 0.0
2015-Feb-22 19:26N 34°41' E 135°13'0 0.0
2015-Feb-22 18:26N 34°41' E 135°13'0 0.0
2015-Feb-22 17:20N 34°41' E 135°13'0 0.0
2015-Feb-22 16:32N 34°41' E 135°13'0 0.0
2015-Feb-22 15:32N 34°41' E 135°13'0 0.0
2015-Feb-22 14:32N 34°41' E 135°13'0 0.0
2015-Feb-22 13:26N 34°41' E 135°13'0 0.0
2015-Feb-22 12:20N 34°41' E 135°13'0 0.0
2015-Feb-22 11:32N 34°41' E 135°13'0 0.0
2015-Feb-22 10:32N 34°41' E 135°13'0 0.0
2015-Feb-22 09:26N 34°41' E 135°13'0 0.0
2015-Feb-22 08:26N 34°41' E 135°13'0 0.0
2015-Feb-22 07:32N 34°41' E 135°13'0 0.0
2015-Feb-22 06:26N 34°41' E 135°13'0 0.0
2015-Feb-22 05:32N 34°41' E 135°13'0 0.0
2015-Feb-22 04:26N 34°41' E 135°13'0 0.0
2015-Feb-22 03:32N 34°41' E 135°13'0 0.1
2015-Feb-22 02:33N 34°41' E 135°13'9 9.3
2015-Feb-22 01:33N 34°32' E 135°13'1413.9
2015-Feb-22 00:33N 34°22' E 135°02'1514.9
2015-Feb-21 23:34N 34°07' E 134°60'23611.1
2015-Feb-21 02:15N 35°04' E 139°38'912.5
2015-Feb-21 01:33N 35°10' E 139°45'1212.5
2015-Feb-21 00:33N 35°22' E 139°41'2 2.1
2015-Feb-20 23:31N 35°24' E 139°41'3 3.6
2015-Feb-20 22:32N 35°23' E 139°45'0 0.0
2015-Feb-20 21:32N 35°23' E 139°45'0 0.0
2015-Feb-20 20:32N 35°23' E 139°45'0 0.1
2015-Feb-20 19:32N 35°23' E 139°45'0 0.1
2015-Feb-20 18:32N 35°23' E 139°45'0 0.0
2015-Feb-20 17:29N 35°23' E 139°45'0 0.0
2015-Feb-20 16:32N 35°23' E 139°45'0 0.0
2015-Feb-20 15:29N 35°23' E 139°45'0 0.0
2015-Feb-20 14:29N 35°23' E 139°45'0 0.0
2015-Feb-20 13:23N 35°23' E 139°45'2 2.4
2015-Feb-20 12:33N 35°24' E 139°46'1110.8
2015-Feb-20 11:33N 35°35' E 139°47'1 0.4
2015-Feb-20 09:06N 35°36' E 139°47'1 1.5
2015-Feb-20 08:10N 35°35' E 139°48'4 2.2
2015-Feb-20 06:24N 35°33' E 139°53'0 0.0
2015-Feb-20 05:33N 35°33' E 139°53'0 0.0
2015-Feb-19 17:31N 35°33' E 139°53'1111.2
2015-Feb-19 16:33N 35°24' E 139°46'1211.8
2015-Feb-19 15:33N 35°12' E 139°47'1111.1
2015-Feb-19 14:33N 35°02' E 139°42'  
Track history (hours):
 
Tides and Currents Weather Stations Pressure Air Temp Water Temp Dewpoint Dewpoint Depression Visibility Wind Speed Wind Dir Waves Ship Positions

Daikoku

Last reported at 2015-Mar-01 02:33 UTC. Time now 2015-Mar-01 03:02 UTC.
Position N 35°03' E 139°43'.

Length 95 m; draft 4.1 m.

Type: Cargo ship. MMSI: 431003009.

Date/timePositionNaut miles runAvg speedWind from/ knotsBaromVisibWave heightAir tempDewpointWater temp
2015-Mar-01 02:33N 35°03' E 139°43'23010.0
2015-Feb-28 03:32N 34°26' E 135°07'1313.2
2015-Feb-28 02:33N 34°37' E 135°16'3 2.8
2015-Feb-28 01:29N 34°40' E 135°14'0 0.2
2015-Feb-28 00:33N 34°40' E 135°14'1 0.7
2015-Feb-27 23:30N 34°39' E 135°15'2 2.4
2015-Feb-27 22:31N 34°37' E 135°15'0 0.0
2015-Feb-27 21:19N 34°37' E 135°15'0 0.0
2015-Feb-27 20:31N 34°37' E 135°15'0 0.0
2015-Feb-27 19:31N 34°37' E 135°15'0 0.0
2015-Feb-27 18:31N 34°37' E 135°15'0 0.1
2015-Feb-27 17:31N 34°37' E 135°15'0 0.0
2015-Feb-27 16:31N 34°37' E 135°15'0 0.1
2015-Feb-27 15:25N 34°37' E 135°15'0 0.0
2015-Feb-27 14:31N 34°37' E 135°15'0 0.1
2015-Feb-27 13:31N 34°37' E 135°15'0 0.0
2015-Feb-27 12:31N 34°37' E 135°15'0 0.0
2015-Feb-27 11:31N 34°37' E 135°15'0 0.0
2015-Feb-27 10:25N 34°37' E 135°15'0 0.1
2015-Feb-27 09:29N 34°37' E 135°15'910.0
2015-Feb-27 08:33N 34°29' E 135°10'1312.7
2015-Feb-27 07:33N 34°18' E 135°00'1111.4
2015-Feb-27 06:33N 34°07' E 134°60'23610.1
2015-Feb-26 07:11N 35°04' E 139°38'913.6
2015-Feb-26 06:33N 35°10' E 139°45'1313.0
2015-Feb-26 05:33N 35°23' E 139°42'4 3.4
2015-Feb-26 04:32N 35°26' E 139°41'0 0.0
2015-Feb-26 03:32N 35°26' E 139°41'0 0.0
2015-Feb-26 02:32N 35°26' E 139°41'0 0.0
2015-Feb-26 01:32N 35°26' E 139°41'0 0.0
2015-Feb-26 00:32N 35°26' E 139°41'0 0.0
2015-Feb-25 18:14N 35°26' E 139°41'0 0.0
2015-Feb-25 17:32N 35°26' E 139°41'0 0.0
2015-Feb-25 16:32N 35°26' E 139°41'0 0.0
2015-Feb-25 15:32N 35°26' E 139°41'0 0.0
2015-Feb-25 14:32N 35°26' E 139°41'0 0.0
2015-Feb-25 13:32N 35°26' E 139°41'0 0.0
2015-Feb-25 12:32N 35°26' E 139°41'0 0.0
2015-Feb-25 11:32N 35°26' E 139°41'0 0.0
2015-Feb-25 10:32N 35°26' E 139°41'0 0.0
2015-Feb-25 09:32N 35°26' E 139°41'0 0.0
2015-Feb-25 08:32N 35°26' E 139°41'0 0.5
2015-Feb-25 07:33N 35°27' E 139°41'2 2.3
2015-Feb-25 06:33N 35°24' E 139°41'3 3.3
2015-Feb-25 05:33N 35°27' E 139°41'4 3.6
2015-Feb-25 04:33N 35°29' E 139°45'0 0.0
2015-Feb-25 03:13N 35°29' E 139°45'5 7.9
2015-Feb-25 02:34N 35°24' E 139°46'1212.2
2015-Feb-25 01:33N 35°12' E 139°47'1312.6
2015-Feb-25 00:33N 35°01' E 139°39'234 5.7
2015-Feb-23 07:15N 34°19' E 134°59'912.6
2015-Feb-23 06:33N 34°26' E 135°06'1212.4
2015-Feb-23 05:33N 34°35' E 135°16'6 5.9
2015-Feb-23 04:31N 34°41' E 135°17'0 0.0
2015-Feb-23 03:31N 34°41' E 135°17'3 1.8
2015-Feb-23 02:04N 34°40' E 135°14'0 0.0
2015-Feb-23 01:31N 34°40' E 135°14'1 0.7
2015-Feb-23 00:27N 34°39' E 135°15'0 0.1
2015-Feb-22 23:32N 34°39' E 135°15'3 2.6
2015-Feb-22 22:32N 34°41' E 135°13'0 0.0
2015-Feb-22 21:32N 34°41' E 135°13'0 0.0
2015-Feb-22 20:32N 34°41' E 135°13'0 0.0
2015-Feb-22 19:26N 34°41' E 135°13'0 0.0
2015-Feb-22 18:26N 34°41' E 135°13'0 0.0
2015-Feb-22 17:20N 34°41' E 135°13'0 0.0
2015-Feb-22 16:32N 34°41' E 135°13'0 0.0
2015-Feb-22 15:32N 34°41' E 135°13'0 0.0
2015-Feb-22 14:32N 34°41' E 135°13'0 0.0
2015-Feb-22 13:26N 34°41' E 135°13'0 0.0
2015-Feb-22 12:20N 34°41' E 135°13'0 0.0
2015-Feb-22 11:32N 34°41' E 135°13'0 0.0
2015-Feb-22 10:32N 34°41' E 135°13'0 0.0
2015-Feb-22 09:26N 34°41' E 135°13'0 0.0
2015-Feb-22 08:26N 34°41' E 135°13'0 0.0
2015-Feb-22 07:32N 34°41' E 135°13'0 0.0
2015-Feb-22 06:26N 34°41' E 135°13'0 0.0
2015-Feb-22 05:32N 34°41' E 135°13'0 0.0
2015-Feb-22 04:26N 34°41' E 135°13'0 0.0
2015-Feb-22 03:32N 34°41' E 135°13'0 0.1
2015-Feb-22 02:33N 34°41' E 135°13'9 9.3
2015-Feb-22 01:33N 34°32' E 135°13'1413.9
2015-Feb-22 00:33N 34°22' E 135°02'1514.9
2015-Feb-21 23:34N 34°07' E 134°60'23611.1
2015-Feb-21 02:15N 35°04' E 139°38'912.5
2015-Feb-21 01:33N 35°10' E 139°45'1212.5
2015-Feb-21 00:33N 35°22' E 139°41'2 2.1
2015-Feb-20 23:31N 35°24' E 139°41'3 3.6
2015-Feb-20 22:32N 35°23' E 139°45'0 0.0
2015-Feb-20 21:32N 35°23' E 139°45'0 0.0
2015-Feb-20 20:32N 35°23' E 139°45'0 0.1
2015-Feb-20 19:32N 35°23' E 139°45'0 0.1
2015-Feb-20 18:32N 35°23' E 139°45'0 0.0
2015-Feb-20 17:29N 35°23' E 139°45'0 0.0
2015-Feb-20 16:32N 35°23' E 139°45'0 0.0
2015-Feb-20 15:29N 35°23' E 139°45'0 0.0
2015-Feb-20 14:29N 35°23' E 139°45'0 0.0
2015-Feb-20 13:23N 35°23' E 139°45'2 2.4
2015-Feb-20 12:33N 35°24' E 139°46'1110.8
2015-Feb-20 11:33N 35°35' E 139°47'1 0.4
2015-Feb-20 09:06N 35°36' E 139°47'1 1.5
2015-Feb-20 08:10N 35°35' E 139°48'4 2.2
2015-Feb-20 06:24N 35°33' E 139°53'0 0.0
2015-Feb-20 05:33N 35°33' E 139°53'0 0.0
2015-Feb-19 17:31N 35°33' E 139°53'1111.2
2015-Feb-19 16:33N 35°24' E 139°46'1211.8
2015-Feb-19 15:33N 35°12' E 139°47'1111.1
2015-Feb-19 14:33N 35°02' E 139°42'  

Dump ship's entire track history